Time;durP1;ratioP1;P1;durP2;ratioP2;P2;SDS_P1;SDS_P2;PMS_P1;PMS_P2;Temp;Humidity;BMP_temperature;BMP_pressure;BME280_temperature;BME280_humidity;BME280_pressure;Samples;Min_cycle;Max_cycle;Signal;HPM_P1;HPM_P2
2024/01/03 00:00:06;;;;;;;10.32;2.28;;;7.90;99.90;;;;;;5055278;28;20574;-77
2024/01/03 00:02:34;;;;;;;5.50;2.20;;;7.50;99.90;;;;;;5051927;28;20048;-78
2024/01/03 00:05:01;;;;;;;9.85;2.10;;;7.20;99.90;;;;;;5051927;28;20337;-77
2024/01/03 00:07:28;;;;;;;9.32;2.30;;;7.90;99.90;;;;;;5052226;28;20074;-77
2024/01/03 00:09:56;;;;;;;21.30;3.17;;;7.70;99.90;;;;;;5053238;28;20060;-77
2024/01/03 00:12:23;;;;;;;13.38;2.88;;;7.10;99.90;;;;;;5051247;28;20076;-76
2024/01/03 00:14:51;;;;;;;8.88;2.40;;;7.70;99.90;;;;;;5057630;28;20097;-76
2024/01/03 00:17:19;;;;;;;8.43;2.50;;;7.30;99.90;;;;;;5053780;28;20094;-76
2024/01/03 00:19:53;;;;;;;14.50;2.45;;;7.20;99.90;;;;;;5052817;28;20102;-76
2024/01/03 00:22:20;;;;;;;10.05;2.17;;;7.50;99.90;;;;;;5052632;28;20048;-76
2024/01/03 00:24:51;;;;;;;9.88;2.80;;;7.10;99.90;;;;;;5053496;28;20098;-76
2024/01/03 00:27:19;;;;;;;8.27;3.22;;;7.60;99.90;;;;;;5051933;28;20048;-76
2024/01/03 00:29:53;;;;;;;10.48;2.30;;;7.00;99.90;;;;;;5052735;28;20056;-77
2024/01/03 00:32:22;;;;;;;8.98;2.10;;;7.20;99.90;;;;;;5052132;28;20514;-76
2024/01/03 00:34:52;;;;;;;8.23;1.98;;;7.60;99.90;;;;;;5051137;28;20045;-77
2024/01/03 00:37:29;;;;;;;10.90;2.60;;;7.70;99.90;;;;;;5053517;28;20545;-76
2024/01/03 00:39:58;;;;;;;9.25;2.65;;;7.40;99.90;;;;;;5053856;28;20056;-76
2024/01/03 00:42:25;;;;;;;10.98;2.78;;;7.10;99.90;;;;;;5054191;28;20052;-76
2024/01/03 00:44:52;;;;;;;9.18;2.13;;;7.50;99.90;;;;;;5053613;28;20041;-76
2024/01/03 00:47:20;;;;;;;16.95;2.92;;;7.30;99.90;;;;;;5040878;28;20451;-77
2024/01/03 00:49:49;;;;;;;8.48;2.45;;;7.60;99.90;;;;;;5050255;28;20057;-77
2024/01/03 00:52:17;;;;;;;13.85;2.60;;;7.00;99.90;;;;;;5053746;28;20102;-77
2024/01/03 00:54:46;;;;;;;9.95;2.40;;;7.00;99.90;;;;;;5052240;28;20571;-76
2024/01/03 00:57:14;;;;;;;11.00;2.42;;;7.00;99.90;;;;;;5055710;28;20083;-76
2024/01/03 00:59:44;;;;;;;12.73;2.40;;;7.60;99.90;;;;;;5054800;28;20562;-77
2024/01/03 01:02:11;;;;;;;11.15;2.60;;;7.20;99.90;;;;;;5056787;28;20079;-77
2024/01/03 01:04:39;;;;;;;10.82;3.17;;;7.60;99.90;;;;;;5054806;28;20561;-77
2024/01/03 01:07:06;;;;;;;9.50;2.45;;;7.60;99.90;;;;;;5057365;28;20094;-76
2024/01/03 01:09:34;;;;;;;11.02;2.30;;;7.10;99.90;;;;;;5055612;28;20052;-76
2024/01/03 01:12:01;;;;;;;11.07;2.95;;;7.00;99.90;;;;;;5055429;28;20052;-76
2024/01/03 01:14:28;;;;;;;16.42;2.95;;;7.40;99.90;;;;;;5055932;28;20048;-76
2024/01/03 01:16:54;;;;;;;17.67;3.70;;;7.60;99.90;;;;;;5055112;28;20117;-75
2024/01/03 01:19:21;;;;;;;17.02;2.35;;;7.60;99.90;;;;;;5055282;28;20052;-75
2024/01/03 01:21:48;;;;;;;9.60;3.42;;;7.70;99.90;;;;;;5055113;28;20055;-76
2024/01/03 01:24:15;;;;;;;15.00;2.60;;;7.70;99.90;;;;;;5056253;28;20051;-76
2024/01/03 01:26:43;;;;;;;10.93;3.35;;;6.90;99.90;;;;;;5057273;28;20037;-75
2024/01/03 01:29:10;;;;;;;10.77;2.97;;;7.50;99.90;;;;;;5065504;28;20041;-76
2024/01/03 01:31:37;;;;;;;8.70;2.25;;;7.70;99.90;;;;;;5062088;28;20106;-75
2024/01/03 01:34:04;;;;;;;13.52;2.50;;;7.50;99.90;;;;;;5046182;28;20114;-76
2024/01/03 01:36:31;;;;;;;21.65;3.50;;;7.70;99.90;;;;;;5055803;28;20062;-76
2024/01/03 01:38:58;;;;;;;13.32;3.00;;;7.10;99.90;;;;;;5054338;28;20060;-76
2024/01/03 01:41:25;;;;;;;10.52;2.85;;;7.70;99.90;;;;;;5056467;28;20111;-76
2024/01/03 01:43:53;;;;;;;16.40;3.20;;;7.00;99.90;;;;;;5056743;28;20173;-76
2024/01/03 01:46:21;;;;;;;11.70;2.63;;;7.50;99.90;;;;;;5043402;28;20458;-75
2024/01/03 01:48:48;;;;;;;10.60;2.55;;;7.00;99.90;;;;;;5056226;28;20100;-76
2024/01/03 01:51:15;;;;;;;12.10;3.10;;;7.50;99.90;;;;;;5043787;28;20408;-75
2024/01/03 01:53:43;;;;;;;14.63;3.28;;;7.10;99.90;;;;;;5055088;28;20048;-76
2024/01/03 01:56:12;;;;;;;11.80;2.83;;;7.40;99.90;;;;;;5056510;28;20480;-75
2024/01/03 01:58:41;;;;;;;16.48;3.65;;;7.10;99.90;;;;;;5053778;28;20435;-75
2024/01/03 02:01:10;;;;;;;13.52;3.28;;;7.70;99.90;;;;;;5056582;28;20079;-74
2024/01/03 02:03:38;;;;;;;11.68;3.33;;;7.00;99.90;;;;;;5056578;28;20052;-75
2024/01/03 02:06:09;;;;;;;11.95;3.03;;;7.10;99.90;;;;;;5055466;28;20048;-76
2024/01/03 02:08:36;;;;;;;13.35;2.75;;;7.80;99.90;;;;;;5054394;28;20123;-75
2024/01/03 02:11:04;;;;;;;15.05;3.50;;;7.60;99.90;;;;;;5054750;28;20114;-75
2024/01/03 02:13:30;;;;;;;16.00;4.07;;;7.10;99.90;;;;;;5055745;28;20147;-75
2024/01/03 02:15:57;;;;;;;13.60;2.92;;;7.70;99.90;;;;;;5053566;28;20052;-75
2024/01/03 02:18:27;;;;;;;16.25;3.35;;;7.10;99.90;;;;;;5055496;28;20049;-76
2024/01/03 02:20:57;;;;;;;16.27;2.97;;;7.10;99.90;;;;;;5053818;28;20519;-75
2024/01/03 02:23:25;;;;;;;13.35;2.90;;;7.10;99.90;;;;;;5054015;28;20048;-75
2024/01/03 02:25:52;;;;;;;12.65;3.25;;;7.10;99.90;;;;;;5055209;28;20051;-74
2024/01/03 02:28:19;;;;;;;11.25;2.67;;;7.70;99.90;;;;;;5053140;28;20052;-75
2024/01/03 02:30:48;;;;;;;15.30;3.88;;;7.10;99.90;;;;;;5053823;28;20044;-73
2024/01/03 02:33:15;;;;;;;13.25;2.80;;;7.20;99.90;;;;;;5053021;28;20044;-74
2024/01/03 02:35:41;;;;;;;11.90;3.08;;;7.50;99.90;;;;;;5053977;28;20044;-75
2024/01/03 02:38:08;;;;;;;15.57;3.55;;;7.20;99.90;;;;;;5054578;28;20454;-75
2024/01/03 02:40:37;;;;;;;16.98;3.85;;;7.20;99.90;;;;;;5053939;28;20041;-75
2024/01/03 02:43:04;;;;;;;11.00;2.88;;;7.20;99.90;;;;;;5054978;28;20045;-75
2024/01/03 02:45:31;;;;;;;19.10;3.85;;;7.70;99.90;;;;;;5053209;28;20041;-75
2024/01/03 02:47:57;;;;;;;13.25;3.13;;;7.10;99.90;;;;;;5054470;28;20064;-75
2024/01/03 02:50:24;;;;;;;16.10;3.28;;;7.20;99.90;;;;;;5052736;28;20492;-75
2024/01/03 02:52:51;;;;;;;11.30;3.22;;;7.70;99.90;;;;;;5053458;28;20098;-75
2024/01/03 02:55:18;;;;;;;15.48;3.03;;;7.20;99.90;;;;;;5055766;28;20158;-74
2024/01/03 02:57:46;;;;;;;13.27;2.60;;;7.60;99.90;;;;;;5053228;28;20040;-73
2024/01/03 03:00:13;;;;;;;10.57;2.88;;;7.20;99.90;;;;;;5065138;28;20110;-74
2024/01/03 03:02:40;;;;;;;10.80;2.35;;;7.50;99.90;;;;;;5056288;28;20079;-74
2024/01/03 03:05:07;;;;;;;9.75;3.10;;;7.30;99.90;;;;;;5052041;28;20044;-74
2024/01/03 03:07:34;;;;;;;11.05;3.75;;;7.30;99.90;;;;;;5056101;28;20052;-73
2024/01/03 03:10:02;;;;;;;13.32;2.55;;;7.20;99.90;;;;;;5051637;28;20056;-73
2024/01/03 03:12:28;;;;;;;12.27;2.55;;;7.20;99.90;;;;;;5054959;28;20113;-74
2024/01/03 03:14:57;;;;;;;13.00;2.70;;;7.20;99.90;;;;;;5054070;28;20060;-74
2024/01/03 03:17:25;;;;;;;10.65;2.35;;;7.50;99.90;;;;;;5054617;28;20090;-74
2024/01/03 03:19:52;;;;;;;9.82;2.50;;;7.60;99.90;;;;;;5052436;28;20114;-75
2024/01/03 03:22:19;;;;;;;9.38;2.78;;;7.20;99.90;;;;;;5054162;28;20053;-73
2024/01/03 03:24:46;;;;;;;9.57;3.28;;;7.30;99.90;;;;;;5067387;28;20110;-74
2024/01/03 03:27:13;;;;;;;11.27;2.70;;;7.40;99.90;;;;;;5053275;28;20119;-74
2024/01/03 03:29:39;;;;;;;9.40;2.72;;;7.30;99.90;;;;;;5055229;28;20081;-74
2024/01/03 03:32:10;;;;;;;10.70;2.70;;;7.30;99.90;;;;;;5053386;28;20496;-74
2024/01/03 03:34:37;;;;;;;6.30;2.40;;;7.50;99.90;;;;;;5054591;28;20044;-74
2024/01/03 03:37:04;;;;;;;13.25;2.60;;;7.30;99.90;;;;;;5054830;28;20106;-74
2024/01/03 03:39:31;;;;;;;17.38;3.33;;;7.50;99.90;;;;;;5055071;28;20048;-74
2024/01/03 03:41:58;;;;;;;12.05;2.65;;;7.20;99.90;;;;;;5052185;28;20467;-74
2024/01/03 03:44:26;;;;;;;13.48;2.38;;;7.30;99.90;;;;;;5053913;28;20048;-75
2024/01/03 03:46:53;;;;;;;7.85;2.33;;;7.50;99.90;;;;;;5051622;28;20067;-74
2024/01/03 03:49:21;;;;;;;7.93;1.98;;;7.60;99.90;;;;;;5054942;28;20056;-74
2024/01/03 03:51:48;;;;;;;8.73;2.08;;;7.30;99.90;;;;;;5055177;28;20044;-73
2024/01/03 03:54:15;;;;;;;5.15;1.58;;;7.60;99.90;;;;;;5052559;28;20567;-74
2024/01/03 03:56:42;;;;;;;8.05;1.92;;;7.50;99.90;;;;;;5070252;28;20430;-73
2024/01/03 03:59:08;;;;;;;8.65;2.08;;;7.70;99.90;;;;;;5054777;28;20423;-73
2024/01/03 04:01:35;;;;;;;9.27;2.67;;;7.70;99.90;;;;;;5054164;28;20044;-73
2024/01/03 04:04:02;;;;;;;9.82;2.70;;;7.70;99.90;;;;;;5052301;28;20113;-75
2024/01/03 04:06:30;;;;;;;8.93;2.50;;;7.50;99.90;;;;;;5055252;28;20051;-75
2024/01/03 04:08:57;;;;;;;10.30;2.60;;;7.70;99.90;;;;;;5053548;28;20479;-75
2024/01/03 04:11:24;;;;;;;7.63;2.45;;;7.50;99.90;;;;;;5054862;28;20541;-74
2024/01/03 04:13:51;;;;;;;6.47;2.10;;;7.60;99.90;;;;;;5054095;28;20075;-75
2024/01/03 04:16:18;;;;;;;12.60;2.03;;;7.60;99.90;;;;;;5052389;28;20098;-75
2024/01/03 04:18:45;;;;;;;8.98;2.20;;;7.60;99.90;;;;;;5051962;28;20116;-74
2024/01/03 04:21:12;;;;;;;9.27;2.08;;;7.40;99.90;;;;;;5052666;28;20203;-74
2024/01/03 04:23:40;;;;;;;11.88;3.13;;;7.40;99.90;;;;;;5054562;28;20055;-75
2024/01/03 04:26:07;;;;;;;12.52;2.67;;;7.40;99.90;;;;;;5054642;28;20052;-76
2024/01/03 04:28:34;;;;;;;6.90;1.92;;;7.40;99.90;;;;;;5054808;28;20098;-74
2024/01/03 04:31:01;;;;;;;7.72;2.35;;;7.50;99.90;;;;;;5055016;28;20060;-75
2024/01/03 04:33:28;;;;;;;9.98;2.15;;;7.80;99.90;;;;;;5058875;28;20503;-74
2024/01/03 04:35:55;;;;;;;9.63;2.67;;;7.60;99.90;;;;;;5059203;28;20102;-75
2024/01/03 04:38:22;;;;;;;8.10;2.03;;;7.80;99.90;;;;;;5056775;28;20122;-75
2024/01/03 04:40:50;;;;;;;8.20;2.72;;;7.70;99.90;;;;;;5057693;28;20044;-74
2024/01/03 04:43:17;;;;;;;9.25;2.38;;;7.70;99.90;;;;;;5058063;28;20110;-74
2024/01/03 04:45:44;;;;;;;7.30;2.13;;;7.80;99.90;;;;;;5058554;28;20056;-75
2024/01/03 04:48:11;;;;;;;7.75;1.67;;;7.70;99.90;;;;;;5063773;28;20052;-75
2024/01/03 04:50:38;;;;;;;6.55;1.90;;;7.60;99.90;;;;;;5065343;28;20052;-75
2024/01/03 04:53:05;;;;;;;8.10;1.50;;;7.50;99.90;;;;;;5069142;28;20075;-75
2024/01/03 04:55:32;;;;;;;7.05;1.60;;;7.50;99.90;;;;;;5065777;28;20098;-75
2024/01/03 04:58:00;;;;;;;6.22;1.75;;;7.80;99.90;;;;;;5057503;28;20040;-76
2024/01/03 05:00:27;;;;;;;7.45;2.58;;;7.70;99.90;;;;;;5058556;28;20048;-75
2024/01/03 05:02:56;;;;;;;8.55;2.30;;;7.70;99.90;;;;;;5054852;28;20450;-75
2024/01/03 05:05:23;;;;;;;6.18;2.00;;;7.80;99.90;;;;;;5057005;28;20048;-76
2024/01/03 05:07:50;;;;;;;9.45;2.25;;;7.80;99.90;;;;;;5057602;28;20114;-75
2024/01/03 05:10:17;;;;;;;6.20;1.90;;;7.70;99.90;;;;;;5055745;28;20048;-75
2024/01/03 05:12:44;;;;;;;6.78;2.45;;;7.70;99.90;;;;;;5056891;28;20093;-76
2024/01/03 05:15:12;;;;;;;6.05;1.98;;;8.00;99.90;;;;;;5054669;28;20052;-75
2024/01/03 05:17:41;;;;;;;10.35;2.47;;;7.70;99.90;;;;;;5056887;28;20044;-75
2024/01/03 05:20:09;;;;;;;6.93;2.50;;;7.90;99.90;;;;;;5055468;28;20113;-75
2024/01/03 05:22:36;;;;;;;10.13;2.55;;;7.80;99.90;;;;;;5054853;28;20110;-75
2024/01/03 05:25:03;;;;;;;7.82;2.40;;;7.90;99.90;;;;;;5059524;28;20098;-76
2024/01/03 05:27:30;;;;;;;11.73;2.53;;;7.70;99.90;;;;;;5052647;28;20098;-76
2024/01/03 05:29:57;;;;;;;8.30;1.85;;;7.80;99.90;;;;;;5064657;28;20052;-76
2024/01/03 05:32:25;;;;;;;15.25;2.63;;;7.90;99.90;;;;;;5055800;28;20105;-76
2024/01/03 05:34:52;;;;;;;5.78;2.33;;;8.00;99.90;;;;;;5056904;28;20094;-76
2024/01/03 05:37:19;;;;;;;7.53;2.20;;;8.00;99.90;;;;;;5052295;28;20063;-76
2024/01/03 05:39:46;;;;;;;11.23;2.30;;;7.70;99.90;;;;;;5056076;28;20532;-75
2024/01/03 05:42:13;;;;;;;9.55;2.38;;;7.90;99.90;;;;;;5053479;28;20451;-75
2024/01/03 05:44:40;;;;;;;10.43;1.90;;;8.00;99.90;;;;;;5056176;28;20072;-75
2024/01/03 05:47:07;;;;;;;7.65;1.48;;;7.80;99.90;;;;;;5044808;28;20040;-75
2024/01/03 05:49:35;;;;;;;4.40;1.67;;;7.90;99.90;;;;;;5053961;28;20397;-75
2024/01/03 05:52:02;;;;;;;8.88;2.25;;;7.90;99.90;;;;;;5053277;28;20103;-75
2024/01/03 05:54:29;;;;;;;9.07;2.85;;;7.60;99.90;;;;;;5055767;28;20439;-75
2024/01/03 05:56:56;;;;;;;6.93;2.13;;;7.80;99.90;;;;;;5053644;28;20037;-76
2024/01/03 05:59:23;;;;;;;12.30;2.75;;;7.80;99.90;;;;;;5044241;28;20105;-75
2024/01/03 06:01:51;;;;;;;14.88;3.33;;;7.90;99.90;;;;;;5053796;28;20056;-75
2024/01/03 06:04:18;;;;;;;17.45;5.07;;;7.80;99.90;;;;;;5054839;28;20071;-75
2024/01/03 06:06:46;;;;;;;15.90;4.78;;;8.00;99.90;;;;;;5055134;28;20502;-74
2024/01/03 06:09:13;;;;;;;17.30;4.30;;;8.00;99.90;;;;;;5069571;28;20097;-74
2024/01/03 06:11:40;;;;;;;21.92;4.55;;;8.00;99.90;;;;;;5053162;28;20060;-75
2024/01/03 06:14:07;;;;;;;19.08;4.85;;;7.90;99.90;;;;;;5053176;28;20049;-75
2024/01/03 06:16:33;;;;;;;23.65;4.88;;;8.00;99.90;;;;;;5055522;28;20090;-75
2024/01/03 06:19:00;;;;;;;19.33;4.18;;;8.10;99.90;;;;;;5053868;28;20094;-75
2024/01/03 06:21:27;;;;;;;18.65;5.25;;;7.90;99.90;;;;;;5053807;28;20044;-75
2024/01/03 06:23:55;;;;;;;21.73;5.65;;;8.00;99.90;;;;;;5053977;28;20084;-76
2024/01/03 06:26:24;;;;;;;21.63;4.88;;;8.30;99.90;;;;;;5052879;28;20601;-76
2024/01/03 06:28:51;;;;;;;18.55;3.97;;;8.20;99.90;;;;;;5053062;28;20139;-74
2024/01/03 06:31:22;;;;;;;25.88;4.47;;;8.20;99.90;;;;;;5062189;28;20052;-75
2024/01/03 06:33:49;;;;;;;13.30;3.90;;;8.10;99.90;;;;;;5055512;28;20146;-75
2024/01/03 06:36:16;;;;;;;20.80;5.00;;;8.10;99.90;;;;;;5055300;28;20041;-75
2024/01/03 06:38:43;;;;;;;15.10;3.83;;;8.20;99.90;;;;;;5055304;28;20499;-75
2024/01/03 06:41:11;;;;;;;13.15;4.35;;;8.00;99.90;;;;;;5055182;28;20496;-76
2024/01/03 06:43:38;;;;;;;16.88;4.57;;;8.00;99.90;;;;;;5052814;28;20483;-75
2024/01/03 06:46:05;;;;;;;16.60;3.95;;;8.10;99.90;;;;;;5057054;28;20447;-75
2024/01/03 06:48:32;;;;;;;14.60;3.60;;;8.00;99.90;;;;;;5063957;28;20044;-75
2024/01/03 06:51:02;;;;;;;22.35;3.35;;;8.20;99.90;;;;;;5067090;28;20063;-75
2024/01/03 06:53:29;;;;;;;15.60;4.05;;;8.10;99.90;;;;;;5057590;28;20044;-75
2024/01/03 06:55:56;;;;;;;19.13;4.30;;;8.00;99.90;;;;;;5069500;28;20072;-76
2024/01/03 06:58:24;;;;;;;19.95;4.53;;;8.20;99.90;;;;;;5055086;28;20078;-75
2024/01/03 07:00:51;;;;;;;22.65;4.55;;;8.20;99.90;;;;;;5055255;28;20060;-75
2024/01/03 07:03:18;;;;;;;16.52;4.10;;;8.20;99.90;;;;;;5055009;28;20052;-81
2024/01/03 07:05:45;;;;;;;12.95;3.65;;;8.00;99.90;;;;;;5055723;28;20102;-75
2024/01/03 07:08:12;;;;;;;21.08;3.72;;;8.00;99.90;;;;;;5055769;28;20052;-75
2024/01/03 07:10:39;;;;;;;20.83;4.90;;;8.00;99.90;;;;;;5053860;28;20049;-75
2024/01/03 07:13:06;;;;;;;21.80;4.70;;;8.20;99.90;;;;;;5052371;28;20048;-75
2024/01/03 07:15:34;;;;;;;14.43;4.00;;;8.20;99.90;;;;;;5053276;28;20048;-75
2024/01/03 07:18:01;;;;;;;18.88;4.63;;;8.20;99.90;;;;;;5069110;28;20102;-75
2024/01/03 07:20:28;;;;;;;20.00;3.97;;;8.30;99.90;;;;;;5053371;28;20520;-75
2024/01/03 07:22:54;;;;;;;27.35;5.75;;;8.10;99.90;;;;;;5049440;28;20488;-75
2024/01/03 07:25:21;;;;;;;19.35;4.68;;;8.20;99.90;;;;;;5054932;28;20458;-75
2024/01/03 07:27:48;;;;;;;17.63;4.80;;;8.20;99.90;;;;;;5055386;28;20469;-75
2024/01/03 07:30:15;;;;;;;16.20;4.38;;;8.20;99.90;;;;;;5054758;28;20094;-75
2024/01/03 07:32:44;;;;;;;16.60;3.92;;;8.10;99.90;;;;;;5052377;28;20385;-75
2024/01/03 07:35:11;;;;;;;17.73;3.55;;;8.20;99.90;;;;;;5070258;28;20059;-75
2024/01/03 07:37:38;;;;;;;21.27;3.95;;;8.20;99.90;;;;;;5058564;28;20484;-75
2024/01/03 07:40:06;;;;;;;21.80;3.92;;;8.50;99.90;;;;;;5052978;28;20577;-75
2024/01/03 07:42:33;;;;;;;18.10;3.70;;;8.20;99.90;;;;;;5052157;28;20045;-75
2024/01/03 07:45:00;;;;;;;13.23;3.55;;;8.10;99.90;;;;;;5055236;28;20094;-75
2024/01/03 07:47:28;;;;;;;13.02;4.10;;;8.20;99.90;;;;;;5034738;28;20095;-75
2024/01/03 07:49:56;;;;;;;15.50;3.88;;;8.10;99.90;;;;;;5052503;28;20059;-75
2024/01/03 07:52:23;;;;;;;10.02;3.40;;;8.20;99.90;;;;;;5067381;28;20110;-75
2024/01/03 07:54:50;;;;;;;19.02;3.50;;;8.30;99.90;;;;;;5064350;28;20056;-74
2024/01/03 07:57:16;;;;;;;17.13;3.60;;;8.10;99.90;;;;;;5054350;28;20040;-75
2024/01/03 07:59:45;;;;;;;20.48;3.50;;;8.20;99.90;;;;;;5051669;28;20102;-75
2024/01/03 08:02:12;;;;;;;14.13;3.60;;;8.20;99.90;;;;;;5051507;28;20059;-75
2024/01/03 08:04:40;;;;;;;14.73;4.43;;;8.20;99.90;;;;;;5052950;28;20052;-75
2024/01/03 08:07:08;;;;;;;22.30;3.65;;;8.20;99.90;;;;;;5053423;28;20135;-75
2024/01/03 08:09:37;;;;;;;16.08;3.97;;;8.30;99.90;;;;;;5052738;28;20052;-75
2024/01/03 08:12:04;;;;;;;15.05;3.78;;;8.20;99.90;;;;;;5054139;28;20040;-75
2024/01/03 08:14:31;;;;;;;16.63;3.65;;;8.30;99.90;;;;;;5053821;28;20098;-75
2024/01/03 08:16:58;;;;;;;14.25;3.95;;;8.40;99.90;;;;;;5054248;28;20084;-75
2024/01/03 08:19:25;;;;;;;16.38;3.65;;;8.40;99.90;;;;;;5051384;28;20075;-75
2024/01/03 08:21:52;;;;;;;14.68;3.92;;;8.30;99.90;;;;;;5051817;28;20094;-76
2024/01/03 08:24:20;;;;;;;18.08;4.18;;;8.30;99.90;;;;;;5050864;28;20114;-74
2024/01/03 08:26:49;;;;;;;17.02;4.53;;;8.60;99.90;;;;;;5054265;28;20041;-74
2024/01/03 08:29:16;;;;;;;21.83;4.25;;;8.30;99.90;;;;;;5051941;28;20049;-75
2024/01/03 08:31:43;;;;;;;15.98;2.80;;;8.40;99.90;;;;;;5054204;28;20102;-75
2024/01/03 08:34:09;;;;;;;15.77;3.63;;;8.30;99.90;;;;;;5054329;28;20045;-75
2024/01/03 08:36:40;;;;;;;14.70;3.67;;;8.40;99.90;;;;;;5053804;28;20247;-74
2024/01/03 08:39:08;;;;;;;13.23;3.40;;;8.40;99.90;;;;;;5055628;28;20080;-74
2024/01/03 08:41:37;;;;;;;11.38;3.03;;;8.40;99.90;;;;;;5058363;28;20044;-75
2024/01/03 08:44:05;;;;;;;15.70;3.50;;;8.50;99.90;;;;;;5062504;28;20986;-75
2024/01/03 08:46:34;;;;;;;13.25;3.15;;;8.40;99.90;;;;;;5058429;28;20102;-74
2024/01/03 08:49:03;;;;;;;14.73;3.42;;;8.40;99.90;;;;;;5054221;28;20044;-74
2024/01/03 08:51:30;;;;;;;12.52;3.35;;;8.30;99.90;;;;;;5053377;28;20110;-76
2024/01/03 08:53:56;;;;;;;15.60;3.10;;;8.40;99.90;;;;;;5052550;28;20060;-76
2024/01/03 08:56:23;;;;;;;13.93;2.90;;;8.30;99.90;;;;;;5068155;28;20060;-74
2024/01/03 08:58:52;;;;;;;20.85;3.78;;;8.60;99.90;;;;;;5051938;28;20135;-75
2024/01/03 09:01:20;;;;;;;12.77;3.15;;;8.40;99.90;;;;;;5050910;28;20546;-76
2024/01/03 09:03:47;;;;;;;18.60;3.67;;;8.30;99.90;;;;;;5051190;28;20055;-74
2024/01/03 09:06:14;;;;;;;16.55;3.75;;;8.30;99.90;;;;;;5050494;28;20052;-74
2024/01/03 09:08:43;;;;;;;15.27;3.28;;;8.40;99.90;;;;;;5051136;28;20408;-74
2024/01/03 09:11:11;;;;;;;12.93;3.75;;;8.50;99.90;;;;;;5051447;28;20048;-75
2024/01/03 09:13:38;;;;;;;11.93;3.92;;;8.50;99.90;;;;;;5052683;28;20127;-75
2024/01/03 09:16:09;;;;;;;15.93;3.75;;;8.60;99.90;;;;;;5053969;28;20518;-75
2024/01/03 09:18:36;;;;;;;12.15;3.20;;;8.60;99.90;;;;;;5055028;28;20100;-74
2024/01/03 09:21:03;;;;;;;14.38;3.35;;;8.60;99.90;;;;;;5074781;28;20515;-74
2024/01/03 09:23:30;;;;;;;12.75;3.60;;;8.60;99.90;;;;;;5057003;28;20052;-75
2024/01/03 09:25:57;;;;;;;13.95;3.10;;;8.80;99.90;;;;;;5043083;28;20080;-75
2024/01/03 09:28:25;;;;;;;15.48;3.17;;;8.90;99.90;;;;;;5057147;28;20083;-75
2024/01/03 09:30:52;;;;;;;13.52;2.97;;;8.90;99.90;;;;;;5055380;28;20396;-75
2024/01/03 09:33:20;;;;;;;9.40;2.70;;;9.10;99.90;;;;;;5056339;28;20395;-75
2024/01/03 09:35:47;;;;;;;10.88;2.70;;;9.50;99.90;;;;;;5056892;28;20049;-75
2024/01/03 09:38:14;;;;;;;9.35;2.90;;;9.40;99.90;;;;;;5053317;28;20381;-75
2024/01/03 09:40:42;;;;;;;13.25;3.67;;;9.30;99.90;;;;;;5053905;28;20076;-75
2024/01/03 09:43:11;;;;;;;12.45;2.92;;;9.40;99.90;;;;;;5055300;28;20098;-75
2024/01/03 09:45:38;;;;;;;9.43;3.03;;;9.20;99.90;;;;;;5054958;28;20098;-75
2024/01/03 09:48:06;;;;;;;13.25;3.05;;;9.30;99.90;;;;;;5054984;28;20061;-76
2024/01/03 09:50:34;;;;;;;12.50;2.97;;;9.20;99.90;;;;;;5055014;28;20047;-76
2024/01/03 09:53:02;;;;;;;8.45;2.78;;;9.10;99.90;;;;;;5056084;28;20075;-75
2024/01/03 09:55:29;;;;;;;10.25;3.15;;;9.10;99.90;;;;;;5056421;28;20044;-75
2024/01/03 09:57:56;;;;;;;9.85;2.47;;;9.10;99.90;;;;;;5056671;28;20052;-75
2024/01/03 10:00:29;;;;;;;8.00;2.40;;;9.00;99.90;;;;;;5053786;28;20064;-75
2024/01/03 10:03:01;;;;;;;9.45;2.00;;;8.90;99.90;;;;;;5056566;28;20495;-75
2024/01/03 10:05:28;;;;;;;10.27;2.33;;;8.90;99.90;;;;;;5053281;28;20052;-75
2024/01/03 10:07:57;;;;;;;7.32;2.22;;;9.10;99.90;;;;;;5055888;28;20462;-75
2024/01/03 10:10:31;;;;;;;10.65;1.85;;;9.10;99.90;;;;;;5056360;28;20044;-75
2024/01/03 10:13:12;;;;;;;4.82;2.03;;;9.10;99.90;;;;;;5055000;28;20446;-75
2024/01/03 10:15:40;;;;;;;7.18;2.38;;;9.20;99.90;;;;;;5054534;28;20105;-75
2024/01/03 10:18:08;;;;;;;13.18;2.58;;;9.30;99.90;;;;;;5053143;28;20489;-75
2024/01/03 10:20:35;;;;;;;10.55;2.45;;;9.40;99.90;;;;;;5063371;28;20557;-75
2024/01/03 10:23:08;;;;;;;10.35;3.20;;;9.50;99.90;;;;;;5052408;28;20404;-75
2024/01/03 10:25:36;;;;;;;17.05;3.00;;;9.50;99.90;;;;;;5054984;28;20518;-76
2024/01/03 10:28:04;;;;;;;12.35;3.13;;;9.50;99.90;;;;;;5053381;28;20057;-76
2024/01/03 10:30:31;;;;;;;10.52;2.40;;;9.40;99.90;;;;;;5054227;28;20495;-75
2024/01/03 10:32:59;;;;;;;12.43;3.40;;;9.30;99.90;;;;;;5053563;28;20057;-75
2024/01/03 10:35:30;;;;;;;12.90;2.58;;;9.20;99.90;;;;;;5053904;28;20101;-76
2024/01/03 10:37:57;;;;;;;10.82;2.67;;;9.00;99.90;;;;;;5055314;28;20044;-75
2024/01/03 10:40:27;;;;;;;11.15;3.30;;;8.90;99.90;;;;;;5063161;28;20040;-75
2024/01/03 10:42:58;;;;;;;11.13;2.58;;;8.80;99.90;;;;;;5065312;28;20051;-75
2024/01/03 10:45:25;;;;;;;7.95;2.90;;;8.80;99.90;;;;;;5064958;28;20051;-75
2024/01/03 10:47:53;;;;;;;7.85;2.22;;;8.90;99.90;;;;;;5055336;28;20404;-75
2024/01/03 10:50:21;;;;;;;11.05;2.40;;;8.70;99.90;;;;;;5054938;28;20059;-75
2024/01/03 10:52:47;;;;;;;9.73;2.50;;;8.80;99.90;;;;;;5053901;28;20048;-75
2024/01/03 10:55:19;;;;;;;9.85;2.50;;;9.10;99.90;;;;;;5052158;28;20094;-75
2024/01/03 10:57:57;;;;;;;9.15;2.33;;;9.70;99.90;;;;;;5054801;28;20183;-75
2024/01/03 11:00:38;;;;;;;10.25;2.75;;;9.70;99.90;;;;;;5052279;28;20457;-75
2024/01/03 11:03:15;;;;;;;11.63;2.90;;;9.70;99.90;;;;;;5053450;28;20052;-75
2024/01/03 11:05:53;;;;;;;10.70;2.55;;;9.70;99.90;;;;;;5056355;28;20045;-75
2024/01/03 11:08:24;;;;;;;12.52;2.65;;;9.70;99.90;;;;;;5055214;28;20048;-75
2024/01/03 11:10:53;;;;;;;11.75;3.35;;;10.10;99.90;;;;;;5052920;28;20052;-76
2024/01/03 11:13:29;;;;;;;14.38;3.45;;;10.40;99.90;;;;;;5049013;28;20049;-75
2024/01/03 11:15:58;;;;;;;9.63;2.47;;;10.80;99.90;;;;;;5053697;28;20100;-75
2024/01/03 11:18:52;;;;;;;8.23;2.30;;;10.80;99.90;;;;;;5051255;28;20393;-75
2024/01/03 11:21:39;;;;;;;8.98;2.60;;;10.60;99.90;;;;;;5053736;28;20057;-75
2024/01/03 11:24:50;;;;;;;15.05;3.38;;;10.30;99.90;;;;;;5051723;28;20409;-75
2024/01/03 11:27:21;;;;;;;11.05;3.55;;;10.20;99.90;;;;;;5054061;28;20442;-75
2024/01/03 11:29:51;;;;;;;21.35;3.47;;;10.10;99.90;;;;;;5054895;28;20071;-75
2024/01/03 11:32:29;;;;;;;10.07;3.25;;;10.10;99.90;;;;;;5052545;28;20464;-76
2024/01/03 11:34:56;;;;;;;13.95;3.70;;;10.40;99.90;;;;;;5054314;28;20096;-76
2024/01/03 11:37:38;;;;;;;13.70;3.47;;;10.60;99.90;;;;;;5052884;28;20090;-76
2024/01/03 11:40:08;;;;;;;12.35;2.70;;;10.70;99.90;;;;;;5051369;28;20068;-75
2024/01/03 11:42:37;;;;;;;25.98;3.17;;;11.00;99.90;;;;;;5052405;28;20135;-76
2024/01/03 11:45:11;;;;;;;16.95;3.88;;;12.20;99.90;;;;;;5052547;28;20052;-76
2024/01/03 11:47:41;;;;;;;13.60;2.72;;;12.80;99.90;;;;;;5053352;28;20044;-75
2024/01/03 11:50:09;;;;;;;17.83;4.30;;;12.80;99.90;;;;;;5051299;28;20365;-75
2024/01/03 11:52:37;;;;;;;13.60;3.15;;;12.50;99.90;;;;;;5051744;28;20052;-75
2024/01/03 11:55:07;;;;;;;10.45;2.55;;;11.90;99.90;;;;;;5051129;28;20048;-75
2024/01/03 11:57:35;;;;;;;12.90;3.00;;;11.40;99.90;;;;;;5054298;28;20044;-75
2024/01/03 12:00:03;;;;;;;10.38;3.00;;;11.10;99.90;;;;;;5051419;28;20040;-76
2024/01/03 12:02:31;;;;;;;15.27;3.38;;;10.80;99.90;;;;;;5053218;28;20044;-76
2024/01/03 12:05:02;;;;;;;14.13;3.10;;;10.60;99.90;;;;;;5054193;28;20471;-76
2024/01/03 12:07:31;;;;;;;9.95;2.50;;;10.30;99.90;;;;;;5051685;28;20055;-76
2024/01/03 12:09:58;;;;;;;19.08;3.83;;;10.10;99.90;;;;;;5052710;28;20071;-76
2024/01/03 12:12:26;;;;;;;13.00;3.33;;;10.00;99.90;;;;;;5054381;28;20052;-76
2024/01/03 12:14:54;;;;;;;14.70;3.45;;;9.90;99.90;;;;;;5053908;28;20060;-75
2024/01/03 12:17:25;;;;;;;13.60;4.10;;;9.80;99.90;;;;;;5048567;28;20063;-76
2024/01/03 12:19:54;;;;;;;16.98;3.60;;;9.90;99.90;;;;;;5054086;28;20231;-76
2024/01/03 12:22:23;;;;;;;13.25;2.80;;;10.00;99.90;;;;;;5070878;28;20052;-75
2024/01/03 12:24:50;;;;;;;14.13;4.00;;;10.10;99.90;;;;;;5038473;28;20080;-76
2024/01/03 12:27:22;;;;;;;9.48;3.28;;;10.20;99.90;;;;;;5040538;28;20048;-75
2024/01/03 12:29:49;;;;;;;16.95;3.13;;;10.20;99.90;;;;;;5051382;28;20083;-75
2024/01/03 12:32:17;;;;;;;9.65;2.70;;;10.20;99.90;;;;;;5052341;28;20045;-76
2024/01/03 12:34:44;;;;;;;16.17;3.10;;;10.00;99.90;;;;;;5055784;28;20520;-75
2024/01/03 12:37:13;;;;;;;15.25;3.28;;;10.00;99.90;;;;;;5062372;28;20048;-75
2024/01/03 12:39:41;;;;;;;11.57;2.83;;;10.00;99.90;;;;;;5055965;28;20377;-75
2024/01/03 12:42:09;;;;;;;15.30;3.15;;;10.00;99.90;;;;;;5053422;28;20159;-75
2024/01/03 12:44:36;;;;;;;17.92;3.45;;;10.00;99.90;;;;;;5057908;28;20079;-74
2024/01/03 12:47:05;;;;;;;10.50;3.42;;;10.20;99.90;;;;;;5068251;28;20131;-76
2024/01/03 12:49:32;;;;;;;16.33;4.40;;;10.20;99.90;;;;;;5045657;28;20099;-76
2024/01/03 12:51:59;;;;;;;13.38;3.05;;;10.30;99.90;;;;;;5052186;28;20055;-77